sensor_id;sensor_type;location;lat;lon;timestamp;P1;durP1;ratioP1;P2;durP2;ratioP2
22571;SDS011;11452;53.368;14.658;2024-02-23T00:02:46;3.27;;;2.97;;
22571;SDS011;11452;53.368;14.658;2024-02-23T00:07:52;3.37;;;3.07;;
22571;SDS011;11452;53.368;14.658;2024-02-23T00:12:58;3.27;;;2.97;;
22571;SDS011;11452;53.368;14.658;2024-02-23T00:18:04;3.87;;;3.43;;
22571;SDS011;11452;53.368;14.658;2024-02-23T00:23:10;3.30;;;3.00;;
22571;SDS011;11452;53.368;14.658;2024-02-23T00:28:16;2.60;;;2.40;;
22571;SDS011;11452;53.368;14.658;2024-02-23T00:33:22;2.50;;;2.30;;
22571;SDS011;11452;53.368;14.658;2024-02-23T00:38:27;2.30;;;2.10;;
22571;SDS011;11452;53.368;14.658;2024-02-23T00:43:40;3.33;;;2.77;;
22571;SDS011;11452;53.368;14.658;2024-02-23T00:48:46;2.30;;;2.10;;
22571;SDS011;11452;53.368;14.658;2024-02-23T00:53:52;2.13;;;2.03;;
22571;SDS011;11452;53.368;14.658;2024-02-23T00:58:58;2.17;;;2.00;;
22571;SDS011;11452;53.368;14.658;2024-02-23T01:04:03;1.83;;;1.73;;
22571;SDS011;11452;53.368;14.658;2024-02-23T01:09:09;1.63;;;1.53;;
22571;SDS011;11452;53.368;14.658;2024-02-23T01:14:15;1.87;;;1.77;;
22571;SDS011;11452;53.368;14.658;2024-02-23T01:19:21;2.87;;;1.87;;
22571;SDS011;11452;53.368;14.658;2024-02-23T01:24:27;1.70;;;1.60;;
22571;SDS011;11452;53.368;14.658;2024-02-23T01:29:34;1.77;;;1.67;;
22571;SDS011;11452;53.368;14.658;2024-02-23T01:34:39;2.80;;;2.13;;
22571;SDS011;11452;53.368;14.658;2024-02-23T01:39:45;1.80;;;1.70;;
22571;SDS011;11452;53.368;14.658;2024-02-23T01:44:51;1.80;;;1.23;;
22571;SDS011;11452;53.368;14.658;2024-02-23T01:49:57;1.83;;;1.73;;
22571;SDS011;11452;53.368;14.658;2024-02-23T01:55:04;1.60;;;1.50;;
22571;SDS011;11452;53.368;14.658;2024-02-23T02:00:11;1.47;;;1.37;;
22571;SDS011;11452;53.368;14.658;2024-02-23T02:05:21;1.67;;;1.50;;
22571;SDS011;11452;53.368;14.658;2024-02-23T02:10:27;1.30;;;1.20;;
22571;SDS011;11452;53.368;14.658;2024-02-23T02:15:32;1.40;;;1.30;;
22571;SDS011;11452;53.368;14.658;2024-02-23T02:20:38;1.73;;;1.20;;
22571;SDS011;11452;53.368;14.658;2024-02-23T02:25:53;1.80;;;1.50;;
22571;SDS011;11452;53.368;14.658;2024-02-23T02:31:00;1.40;;;1.10;;
22571;SDS011;11452;53.368;14.658;2024-02-23T02:36:05;1.03;;;0.93;;
22571;SDS011;11452;53.368;14.658;2024-02-23T02:41:11;1.20;;;1.07;;
22571;SDS011;11452;53.368;14.658;2024-02-23T02:46:17;1.33;;;1.00;;
22571;SDS011;11452;53.368;14.658;2024-02-23T02:51:23;1.30;;;1.20;;
22571;SDS011;11452;53.368;14.658;2024-02-23T02:56:29;0.90;;;0.90;;
22571;SDS011;11452;53.368;14.658;2024-02-23T03:01:34;1.20;;;0.90;;
22571;SDS011;11452;53.368;14.658;2024-02-23T03:06:40;1.60;;;0.90;;
22571;SDS011;11452;53.368;14.658;2024-02-23T03:11:46;0.67;;;0.67;;
22571;SDS011;11452;53.368;14.658;2024-02-23T03:16:52;1.10;;;0.90;;
22571;SDS011;11452;53.368;14.658;2024-02-23T03:21:58;0.93;;;0.77;;
22571;SDS011;11452;53.368;14.658;2024-02-23T03:27:04;0.50;;;0.50;;
22571;SDS011;11452;53.368;14.658;2024-02-23T03:32:09;0.40;;;0.40;;
22571;SDS011;11452;53.368;14.658;2024-02-23T03:37:16;0.93;;;0.60;;
22571;SDS011;11452;53.368;14.658;2024-02-23T03:42:22;1.40;;;0.60;;
22571;SDS011;11452;53.368;14.658;2024-02-23T03:47:27;0.40;;;0.40;;
22571;SDS011;11452;53.368;14.658;2024-02-23T03:52:33;0.67;;;0.40;;
22571;SDS011;11452;53.368;14.658;2024-02-23T03:57:39;2.73;;;0.53;;
22571;SDS011;11452;53.368;14.658;2024-02-23T04:02:46;1.70;;;0.60;;
22571;SDS011;11452;53.368;14.658;2024-02-23T04:07:52;0.80;;;0.40;;
22571;SDS011;11452;53.368;14.658;2024-02-23T04:12:58;0.77;;;0.50;;
22571;SDS011;11452;53.368;14.658;2024-02-23T04:18:04;1.13;;;0.60;;
22571;SDS011;11452;53.368;14.658;2024-02-23T04:23:10;0.47;;;0.43;;
22571;SDS011;11452;53.368;14.658;2024-02-23T04:28:16;0.73;;;0.30;;
22571;SDS011;11452;53.368;14.658;2024-02-23T04:33:22;0.37;;;0.37;;
22571;SDS011;11452;53.368;14.658;2024-02-23T04:38:28;1.00;;;0.90;;
22571;SDS011;11452;53.368;14.658;2024-02-23T04:43:35;1.50;;;0.27;;
22571;SDS011;11452;53.368;14.658;2024-02-23T04:48:41;0.97;;;0.47;;
22571;SDS011;11452;53.368;14.658;2024-02-23T04:53:47;0.67;;;0.40;;
22571;SDS011;11452;53.368;14.658;2024-02-23T04:58:53;1.37;;;0.43;;
22571;SDS011;11452;53.368;14.658;2024-02-23T05:03:59;1.23;;;0.37;;
22571;SDS011;11452;53.368;14.658;2024-02-23T05:09:05;0.57;;;0.20;;
22571;SDS011;11452;53.368;14.658;2024-02-23T05:14:13;0.63;;;0.20;;
22571;SDS011;11452;53.368;14.658;2024-02-23T05:19:19;0.43;;;0.30;;
22571;SDS011;11452;53.368;14.658;2024-02-23T05:24:25;0.43;;;0.30;;
22571;SDS011;11452;53.368;14.658;2024-02-23T05:29:30;0.70;;;0.20;;
22571;SDS011;11452;53.368;14.658;2024-02-23T05:34:36;0.63;;;0.30;;
22571;SDS011;11452;53.368;14.658;2024-02-23T05:39:42;1.53;;;0.30;;
22571;SDS011;11452;53.368;14.658;2024-02-23T05:44:50;0.23;;;0.13;;
22571;SDS011;11452;53.368;14.658;2024-02-23T05:49:56;0.60;;;0.30;;
22571;SDS011;11452;53.368;14.658;2024-02-23T05:55:02;1.37;;;0.50;;
22571;SDS011;11452;53.368;14.658;2024-02-23T06:00:09;2.20;;;0.60;;
22571;SDS011;11452;53.368;14.658;2024-02-23T06:05:18;1.33;;;0.30;;
22571;SDS011;11452;53.368;14.658;2024-02-23T06:10:24;0.70;;;0.30;;
22571;SDS011;11452;53.368;14.658;2024-02-23T06:15:29;1.00;;;0.43;;
22571;SDS011;11452;53.368;14.658;2024-02-23T06:20:35;1.00;;;0.37;;
22571;SDS011;11452;53.368;14.658;2024-02-23T06:25:41;0.23;;;0.23;;
22571;SDS011;11452;53.368;14.658;2024-02-23T06:30:49;0.63;;;0.30;;
22571;SDS011;11452;53.368;14.658;2024-02-23T06:35:54;0.83;;;0.20;;
22571;SDS011;11452;53.368;14.658;2024-02-23T06:41:00;0.50;;;0.30;;
22571;SDS011;11452;53.368;14.658;2024-02-23T06:46:06;0.20;;;0.20;;
22571;SDS011;11452;53.368;14.658;2024-02-23T06:51:12;0.20;;;0.17;;
22571;SDS011;11452;53.368;14.658;2024-02-23T06:56:20;0.20;;;0.20;;
22571;SDS011;11452;53.368;14.658;2024-02-23T07:01:26;0.13;;;0.10;;
22571;SDS011;11452;53.368;14.658;2024-02-23T07:06:31;0.43;;;0.40;;
22571;SDS011;11452;53.368;14.658;2024-02-23T07:11:39;0.30;;;0.30;;
22571;SDS011;11452;53.368;14.658;2024-02-23T07:16:47;0.30;;;0.30;;
22571;SDS011;11452;53.368;14.658;2024-02-23T07:21:52;0.20;;;0.20;;
22571;SDS011;11452;53.368;14.658;2024-02-23T07:26:58;0.83;;;0.20;;
22571;SDS011;11452;53.368;14.658;2024-02-23T07:32:05;0.67;;;0.27;;
22571;SDS011;11452;53.368;14.658;2024-02-23T07:37:12;0.20;;;0.20;;
22571;SDS011;11452;53.368;14.658;2024-02-23T07:42:18;0.30;;;0.30;;
22571;SDS011;11452;53.368;14.658;2024-02-23T07:47:24;0.30;;;0.30;;
22571;SDS011;11452;53.368;14.658;2024-02-23T07:52:31;0.10;;;0.10;;
22571;SDS011;11452;53.368;14.658;2024-02-23T07:57:37;0.20;;;0.20;;
22571;SDS011;11452;53.368;14.658;2024-02-23T08:02:44;0.33;;;0.33;;
22571;SDS011;11452;53.368;14.658;2024-02-23T08:07:50;0.80;;;0.30;;
22571;SDS011;11452;53.368;14.658;2024-02-23T08:12:57;0.57;;;0.30;;
22571;SDS011;11452;53.368;14.658;2024-02-23T08:18:04;0.80;;;0.20;;
22571;SDS011;11452;53.368;14.658;2024-02-23T08:23:10;0.23;;;0.23;;
22571;SDS011;11452;53.368;14.658;2024-02-23T08:28:16;0.43;;;0.40;;
22571;SDS011;11452;53.368;14.658;2024-02-23T08:33:21;0.60;;;0.50;;
22571;SDS011;11452;53.368;14.658;2024-02-23T08:38:27;1.27;;;0.40;;
22571;SDS011;11452;53.368;14.658;2024-02-23T08:43:33;0.40;;;0.30;;
22571;SDS011;11452;53.368;14.658;2024-02-23T08:48:39;0.50;;;0.30;;
22571;SDS011;11452;53.368;14.658;2024-02-23T08:53:45;0.60;;;0.50;;
22571;SDS011;11452;53.368;14.658;2024-02-23T08:58:51;0.40;;;0.33;;
22571;SDS011;11452;53.368;14.658;2024-02-23T09:03:57;0.30;;;0.20;;
22571;SDS011;11452;53.368;14.658;2024-02-23T09:09:02;0.97;;;0.50;;
22571;SDS011;11452;53.368;14.658;2024-02-23T09:14:08;0.40;;;0.30;;
22571;SDS011;11452;53.368;14.658;2024-02-23T09:19:14;2.10;;;0.30;;
22571;SDS011;11452;53.368;14.658;2024-02-23T09:24:20;0.30;;;0.30;;
22571;SDS011;11452;53.368;14.658;2024-02-23T09:29:26;0.73;;;0.37;;
22571;SDS011;11452;53.368;14.658;2024-02-23T09:34:32;0.97;;;0.53;;
22571;SDS011;11452;53.368;14.658;2024-02-23T09:39:37;1.40;;;0.70;;
22571;SDS011;11452;53.368;14.658;2024-02-23T09:44:43;0.47;;;0.47;;
22571;SDS011;11452;53.368;14.658;2024-02-23T09:49:50;0.47;;;0.37;;
22571;SDS011;11452;53.368;14.658;2024-02-23T09:54:57;1.03;;;0.47;;
22571;SDS011;11452;53.368;14.658;2024-02-23T10:00:04;1.20;;;0.33;;
22571;SDS011;11452;53.368;14.658;2024-02-23T10:05:12;1.20;;;0.50;;
22571;SDS011;11452;53.368;14.658;2024-02-23T10:10:30;1.30;;;0.40;;
22571;SDS011;11452;53.368;14.658;2024-02-23T10:15:41;0.60;;;0.40;;
22571;SDS011;11452;53.368;14.658;2024-02-23T10:20:49;0.50;;;0.40;;
22571;SDS011;11452;53.368;14.658;2024-02-23T10:25:56;0.30;;;0.30;;
22571;SDS011;11452;53.368;14.658;2024-02-23T10:31:03;0.50;;;0.37;;
22571;SDS011;11452;53.368;14.658;2024-02-23T10:36:11;0.37;;;0.33;;
22571;SDS011;11452;53.368;14.658;2024-02-23T10:41:18;1.57;;;0.40;;
22571;SDS011;11452;53.368;14.658;2024-02-23T10:46:25;0.90;;;0.50;;
22571;SDS011;11452;53.368;14.658;2024-02-23T10:51:32;0.30;;;0.30;;
22571;SDS011;11452;53.368;14.658;2024-02-23T10:56:41;1.13;;;0.33;;
22571;SDS011;11452;53.368;14.658;2024-02-23T11:01:48;1.03;;;0.30;;
22571;SDS011;11452;53.368;14.658;2024-02-23T11:06:56;0.43;;;0.43;;
22571;SDS011;11452;53.368;14.658;2024-02-23T11:12:03;1.83;;;0.40;;
22571;SDS011;11452;53.368;14.658;2024-02-23T11:17:17;0.70;;;0.50;;
22571;SDS011;11452;53.368;14.658;2024-02-23T11:22:25;1.03;;;0.37;;
22571;SDS011;11452;53.368;14.658;2024-02-23T11:27:40;0.50;;;0.33;;
22571;SDS011;11452;53.368;14.658;2024-02-23T11:32:47;0.83;;;0.20;;
22571;SDS011;11452;53.368;14.658;2024-02-23T11:37:55;0.27;;;0.23;;
22571;SDS011;11452;53.368;14.658;2024-02-23T11:43:03;0.63;;;0.30;;
22571;SDS011;11452;53.368;14.658;2024-02-23T11:48:10;1.70;;;0.30;;
22571;SDS011;11452;53.368;14.658;2024-02-23T11:53:15;1.40;;;0.40;;
22571;SDS011;11452;53.368;14.658;2024-02-23T11:58:23;0.53;;;0.50;;
22571;SDS011;11452;53.368;14.658;2024-02-23T12:03:29;0.73;;;0.30;;
22571;SDS011;11452;53.368;14.658;2024-02-23T12:08:35;0.37;;;0.20;;
22571;SDS011;11452;53.368;14.658;2024-02-23T12:13:42;0.53;;;0.30;;
22571;SDS011;11452;53.368;14.658;2024-02-23T12:18:55;0.73;;;0.20;;
22571;SDS011;11452;53.368;14.658;2024-02-23T12:24:03;0.60;;;0.20;;
22571;SDS011;11452;53.368;14.658;2024-02-23T12:29:14;0.30;;;0.20;;
22571;SDS011;11452;53.368;14.658;2024-02-23T12:34:20;1.20;;;0.40;;
22571;SDS011;11452;53.368;14.658;2024-02-23T12:39:25;0.63;;;0.30;;
22571;SDS011;11452;53.368;14.658;2024-02-23T12:44:31;1.10;;;0.70;;
22571;SDS011;11452;53.368;14.658;2024-02-23T12:49:37;0.77;;;0.30;;
22571;SDS011;11452;53.368;14.658;2024-02-23T12:54:44;0.30;;;0.30;;
22571;SDS011;11452;53.368;14.658;2024-02-23T12:59:51;0.73;;;0.40;;
22571;SDS011;11452;53.368;14.658;2024-02-23T13:04:57;0.57;;;0.30;;
22571;SDS011;11452;53.368;14.658;2024-02-23T13:10:03;0.23;;;0.23;;
22571;SDS011;11452;53.368;14.658;2024-02-23T13:15:10;0.47;;;0.30;;
22571;SDS011;11452;53.368;14.658;2024-02-23T13:20:15;0.37;;;0.20;;
22571;SDS011;11452;53.368;14.658;2024-02-23T13:25:21;0.80;;;0.40;;
22571;SDS011;11452;53.368;14.658;2024-02-23T13:30:27;0.73;;;0.40;;
22571;SDS011;11452;53.368;14.658;2024-02-23T13:35:33;0.30;;;0.30;;
22571;SDS011;11452;53.368;14.658;2024-02-23T13:40:39;0.73;;;0.50;;
22571;SDS011;11452;53.368;14.658;2024-02-23T13:45:49;0.60;;;0.40;;
22571;SDS011;11452;53.368;14.658;2024-02-23T13:50:55;1.20;;;0.50;;
22571;SDS011;11452;53.368;14.658;2024-02-23T13:56:03;0.40;;;0.40;;
22571;SDS011;11452;53.368;14.658;2024-02-23T14:01:09;0.60;;;0.50;;
22571;SDS011;11452;53.368;14.658;2024-02-23T14:06:15;0.40;;;0.37;;
22571;SDS011;11452;53.368;14.658;2024-02-23T14:11:21;1.70;;;0.40;;
22571;SDS011;11452;53.368;14.658;2024-02-23T14:16:27;0.70;;;0.30;;
22571;SDS011;11452;53.368;14.658;2024-02-23T14:21:33;0.67;;;0.50;;
22571;SDS011;11452;53.368;14.658;2024-02-23T14:26:40;0.73;;;0.47;;
22571;SDS011;11452;53.368;14.658;2024-02-23T14:31:46;0.40;;;0.30;;
22571;SDS011;11452;53.368;14.658;2024-02-23T14:36:52;0.60;;;0.40;;
22571;SDS011;11452;53.368;14.658;2024-02-23T14:41:57;0.40;;;0.40;;
22571;SDS011;11452;53.368;14.658;2024-02-23T14:47:04;1.07;;;0.50;;
22571;SDS011;11452;53.368;14.658;2024-02-23T14:52:10;0.40;;;0.40;;
22571;SDS011;11452;53.368;14.658;2024-02-23T14:57:16;0.50;;;0.33;;
22571;SDS011;11452;53.368;14.658;2024-02-23T15:02:21;3.80;;;0.80;;
22571;SDS011;11452;53.368;14.658;2024-02-23T15:07:27;1.03;;;0.47;;
22571;SDS011;11452;53.368;14.658;2024-02-23T15:12:36;1.00;;;0.40;;
22571;SDS011;11452;53.368;14.658;2024-02-23T15:17:42;0.90;;;0.60;;
22571;SDS011;11452;53.368;14.658;2024-02-23T15:22:50;1.10;;;0.43;;
22571;SDS011;11452;53.368;14.658;2024-02-23T15:27:56;0.87;;;0.47;;
22571;SDS011;11452;53.368;14.658;2024-02-23T15:33:02;1.27;;;0.67;;
22571;SDS011;11452;53.368;14.658;2024-02-23T15:38:09;0.50;;;0.30;;
22571;SDS011;11452;53.368;14.658;2024-02-23T15:43:15;0.50;;;0.40;;
22571;SDS011;11452;53.368;14.658;2024-02-23T15:48:20;0.50;;;0.30;;
22571;SDS011;11452;53.368;14.658;2024-02-23T15:53:27;0.83;;;0.37;;
22571;SDS011;11452;53.368;14.658;2024-02-23T15:58:33;0.50;;;0.47;;
22571;SDS011;11452;53.368;14.658;2024-02-23T16:03:39;0.53;;;0.40;;
22571;SDS011;11452;53.368;14.658;2024-02-23T16:08:51;0.50;;;0.40;;
22571;SDS011;11452;53.368;14.658;2024-02-23T16:13:52;0.70;;;0.60;;
22571;SDS011;11452;53.368;14.658;2024-02-23T16:18:59;0.67;;;0.30;;
22571;SDS011;11452;53.368;14.658;2024-02-23T16:24:05;0.60;;;0.60;;
22571;SDS011;11452;53.368;14.658;2024-02-23T16:29:11;1.67;;;0.60;;
22571;SDS011;11452;53.368;14.658;2024-02-23T16:34:17;0.93;;;0.70;;
22571;SDS011;11452;53.368;14.658;2024-02-23T16:39:23;1.70;;;0.67;;
22571;SDS011;11452;53.368;14.658;2024-02-23T16:44:28;2.00;;;0.60;;
22571;SDS011;11452;53.368;14.658;2024-02-23T16:49:34;1.30;;;0.67;;
22571;SDS011;11452;53.368;14.658;2024-02-23T16:54:40;1.03;;;0.80;;
22571;SDS011;11452;53.368;14.658;2024-02-23T16:59:46;1.70;;;0.67;;
22571;SDS011;11452;53.368;14.658;2024-02-23T17:04:51;1.00;;;0.40;;
22571;SDS011;11452;53.368;14.658;2024-02-23T17:09:57;0.90;;;0.67;;
22571;SDS011;11452;53.368;14.658;2024-02-23T17:15:03;2.97;;;1.77;;
22571;SDS011;11452;53.368;14.658;2024-02-23T17:20:10;2.27;;;1.40;;
22571;SDS011;11452;53.368;14.658;2024-02-23T17:25:16;0.90;;;0.90;;
22571;SDS011;11452;53.368;14.658;2024-02-23T17:30:22;2.63;;;1.10;;
22571;SDS011;11452;53.368;14.658;2024-02-23T17:35:27;1.60;;;0.60;;
22571;SDS011;11452;53.368;14.658;2024-02-23T17:40:33;1.33;;;0.87;;
22571;SDS011;11452;53.368;14.658;2024-02-23T17:45:39;1.50;;;0.67;;
22571;SDS011;11452;53.368;14.658;2024-02-23T17:50:45;0.67;;;0.60;;
22571;SDS011;11452;53.368;14.658;2024-02-23T17:55:51;0.67;;;0.60;;
22571;SDS011;11452;53.368;14.658;2024-02-23T18:00:58;1.40;;;0.70;;
22571;SDS011;11452;53.368;14.658;2024-02-23T18:06:04;2.13;;;0.73;;
22571;SDS011;11452;53.368;14.658;2024-02-23T18:11:10;1.97;;;0.57;;
22571;SDS011;11452;53.368;14.658;2024-02-23T18:16:15;0.83;;;0.57;;
22571;SDS011;11452;53.368;14.658;2024-02-23T18:21:22;0.60;;;0.50;;
22571;SDS011;11452;53.368;14.658;2024-02-23T18:26:28;1.33;;;0.67;;
22571;SDS011;11452;53.368;14.658;2024-02-23T18:31:34;1.10;;;0.70;;
22571;SDS011;11452;53.368;14.658;2024-02-23T18:36:40;0.50;;;0.50;;
22571;SDS011;11452;53.368;14.658;2024-02-23T18:41:47;1.13;;;0.60;;
22571;SDS011;11452;53.368;14.658;2024-02-23T18:46:53;1.87;;;1.40;;
22571;SDS011;11452;53.368;14.658;2024-02-23T18:52:00;2.73;;;1.43;;
22571;SDS011;11452;53.368;14.658;2024-02-23T18:57:06;1.30;;;1.07;;
22571;SDS011;11452;53.368;14.658;2024-02-23T19:02:12;1.60;;;0.80;;
22571;SDS011;11452;53.368;14.658;2024-02-23T19:07:18;2.33;;;1.67;;
22571;SDS011;11452;53.368;14.658;2024-02-23T19:12:26;7.63;;;6.60;;
22571;SDS011;11452;53.368;14.658;2024-02-23T19:17:33;7.30;;;5.23;;
22571;SDS011;11452;53.368;14.658;2024-02-23T19:22:40;5.63;;;4.00;;
22571;SDS011;11452;53.368;14.658;2024-02-23T19:27:47;5.43;;;3.80;;
22571;SDS011;11452;53.368;14.658;2024-02-23T19:32:52;3.27;;;1.97;;
22571;SDS011;11452;53.368;14.658;2024-02-23T19:37:58;2.73;;;2.07;;
22571;SDS011;11452;53.368;14.658;2024-02-23T19:43:04;2.53;;;1.53;;
22571;SDS011;11452;53.368;14.658;2024-02-23T19:48:11;2.30;;;1.20;;
22571;SDS011;11452;53.368;14.658;2024-02-23T19:53:16;1.83;;;1.57;;
22571;SDS011;11452;53.368;14.658;2024-02-23T19:58:22;2.87;;;1.70;;
22571;SDS011;11452;53.368;14.658;2024-02-23T20:03:28;2.43;;;1.40;;
22571;SDS011;11452;53.368;14.658;2024-02-23T20:08:34;1.70;;;1.10;;
22571;SDS011;11452;53.368;14.658;2024-02-23T20:13:40;4.27;;;2.17;;
22571;SDS011;11452;53.368;14.658;2024-02-23T20:18:45;1.60;;;1.27;;
22571;SDS011;11452;53.368;14.658;2024-02-23T20:23:51;3.47;;;1.87;;
22571;SDS011;11452;53.368;14.658;2024-02-23T20:28:57;2.60;;;1.40;;
22571;SDS011;11452;53.368;14.658;2024-02-23T20:34:03;2.53;;;1.70;;
22571;SDS011;11452;53.368;14.658;2024-02-23T20:39:11;2.60;;;1.27;;
22571;SDS011;11452;53.368;14.658;2024-02-23T20:44:17;2.83;;;1.33;;
22571;SDS011;11452;53.368;14.658;2024-02-23T20:49:25;1.83;;;1.33;;
22571;SDS011;11452;53.368;14.658;2024-02-23T20:54:30;2.43;;;1.70;;
22571;SDS011;11452;53.368;14.658;2024-02-23T20:59:36;2.53;;;1.53;;
22571;SDS011;11452;53.368;14.658;2024-02-23T21:04:42;2.93;;;1.67;;
22571;SDS011;11452;53.368;14.658;2024-02-23T21:09:48;2.33;;;1.80;;
22571;SDS011;11452;53.368;14.658;2024-02-23T21:14:54;2.77;;;1.70;;
22571;SDS011;11452;53.368;14.658;2024-02-23T21:19:59;2.20;;;1.30;;
22571;SDS011;11452;53.368;14.658;2024-02-23T21:25:06;3.00;;;1.43;;
22571;SDS011;11452;53.368;14.658;2024-02-23T21:30:14;1.97;;;1.23;;
22571;SDS011;11452;53.368;14.658;2024-02-23T21:35:20;1.80;;;1.40;;
22571;SDS011;11452;53.368;14.658;2024-02-23T21:40:29;3.30;;;1.47;;
22571;SDS011;11452;53.368;14.658;2024-02-23T21:45:35;2.20;;;1.47;;
22571;SDS011;11452;53.368;14.658;2024-02-23T21:50:40;2.07;;;1.30;;
22571;SDS011;11452;53.368;14.658;2024-02-23T21:55:47;1.93;;;1.40;;
22571;SDS011;11452;53.368;14.658;2024-02-23T22:00:53;2.23;;;1.73;;
22571;SDS011;11452;53.368;14.658;2024-02-23T22:05:59;1.80;;;1.50;;
22571;SDS011;11452;53.368;14.658;2024-02-23T22:11:04;3.33;;;1.70;;
22571;SDS011;11452;53.368;14.658;2024-02-23T22:16:10;4.40;;;1.67;;
22571;SDS011;11452;53.368;14.658;2024-02-23T22:21:16;4.00;;;2.00;;
22571;SDS011;11452;53.368;14.658;2024-02-23T22:26:23;3.03;;;1.40;;
22571;SDS011;11452;53.368;14.658;2024-02-23T22:31:29;2.60;;;1.33;;
22571;SDS011;11452;53.368;14.658;2024-02-23T22:36:35;3.60;;;1.57;;
22571;SDS011;11452;53.368;14.658;2024-02-23T22:41:41;2.40;;;1.73;;
22571;SDS011;11452;53.368;14.658;2024-02-23T22:46:49;3.07;;;1.77;;
22571;SDS011;11452;53.368;14.658;2024-02-23T22:51:56;2.10;;;1.60;;
22571;SDS011;11452;53.368;14.658;2024-02-23T22:57:01;2.10;;;1.67;;
22571;SDS011;11452;53.368;14.658;2024-02-23T23:02:07;2.40;;;1.10;;
22571;SDS011;11452;53.368;14.658;2024-02-23T23:07:13;3.20;;;1.53;;
22571;SDS011;11452;53.368;14.658;2024-02-23T23:12:19;3.33;;;1.60;;
22571;SDS011;11452;53.368;14.658;2024-02-23T23:17:24;2.10;;;1.40;;
22571;SDS011;11452;53.368;14.658;2024-02-23T23:22:30;2.00;;;1.40;;
22571;SDS011;11452;53.368;14.658;2024-02-23T23:27:36;2.27;;;1.33;;
22571;SDS011;11452;53.368;14.658;2024-02-23T23:32:42;2.10;;;1.20;;
22571;SDS011;11452;53.368;14.658;2024-02-23T23:37:48;2.77;;;1.30;;
22571;SDS011;11452;53.368;14.658;2024-02-23T23:42:54;1.40;;;1.30;;
22571;SDS011;11452;53.368;14.658;2024-02-23T23:48:00;1.70;;;1.37;;
22571;SDS011;11452;53.368;14.658;2024-02-23T23:53:06;1.03;;;0.93;;
22571;SDS011;11452;53.368;14.658;2024-02-23T23:58:12;1.67;;;1.23;;
